createdAt,value
2022-09-21T00:00:48.559Z,99255.66
2022-09-21T00:01:51.004Z,99259.31
2022-09-21T00:02:55.776Z,99261.08
2022-09-21T00:04:01.152Z,99254.29
2022-09-21T00:05:03.318Z,99255.11
2022-09-21T00:06:07.529Z,99253.37
2022-09-21T00:07:10.506Z,99256.11
2022-09-21T00:08:13.657Z,99254.42
2022-09-21T00:09:15.757Z,99257.41
2022-09-21T00:10:20.344Z,99258.19
2022-09-21T00:11:25.474Z,99256.28
2022-09-21T00:12:27.400Z,99248.31
2022-09-21T00:13:29.638Z,99249.48
2022-09-21T00:14:31.794Z,99247.72
2022-09-21T00:15:34.219Z,99253.98
2022-09-21T00:16:36.495Z,99257.49
2022-09-21T00:17:38.591Z,99257.49
2022-09-21T00:18:40.860Z,99250.45
2022-09-21T00:19:42.876Z,99250.62
2022-09-21T00:20:44.854Z,99247.11
2022-09-21T00:21:47.242Z,99248.10
2022-09-21T00:22:49.415Z,99244.73
2022-09-21T00:23:51.349Z,99249.92
2022-09-21T00:24:53.066Z,99245.42
2022-09-21T00:26:07.418Z,99249.62
2022-09-21T00:27:09.358Z,99238.55
2022-09-21T00:28:11.294Z,99245.73
2022-09-21T00:29:13.216Z,99247.41
2022-09-21T00:30:15.760Z,99246.72
2022-09-21T00:31:17.699Z,99251.75
2022-09-21T00:32:19.541Z,99247.55
2022-09-21T00:33:21.394Z,99246.55
2022-09-21T00:34:23.353Z,99248.16
2022-09-21T00:35:25.429Z,99248.16
2022-09-21T00:36:27.997Z,99249.70
2022-09-21T00:37:30.363Z,99237.72
2022-09-21T00:38:33.563Z,99247.55
2022-09-21T00:39:35.517Z,99245.03
2022-09-21T00:40:37.626Z,99241.36
2022-09-21T00:41:39.626Z,99240.45
2022-09-21T00:42:41.702Z,99239.67
2022-09-21T00:43:50.246Z,99233.73
2022-09-21T00:44:52.721Z,99241.83
2022-09-21T00:46:04.645Z,99244.26
2022-09-21T00:47:13.155Z,99242.22
2022-09-21T00:48:15.414Z,99237.77
2022-09-21T00:49:17.896Z,99241.75
2022-09-21T00:50:24.933Z,99238.55
2022-09-21T00:51:27.186Z,99241.14
2022-09-21T00:52:32.779Z,99246.20
2022-09-21T00:53:37.063Z,99240.36
2022-09-21T00:54:42.714Z,99238.68
2022-09-21T00:55:48.376Z,99245.73
2022-09-21T00:56:50.716Z,99239.67
2022-09-21T00:57:56.243Z,99235.25
2022-09-21T00:58:58.298Z,99239.63
2022-09-21T01:00:03.841Z,99241.91
2022-09-21T01:01:06.058Z,99236.63
2022-09-21T01:02:08.475Z,99229.63
2022-09-21T01:03:13.345Z,99239.92
2022-09-21T01:04:16.077Z,99230.75
2022-09-21T01:05:18.132Z,99231.53
2022-09-21T01:06:20.815Z,99233.27
2022-09-21T01:07:26.404Z,99231.83
2022-09-21T01:08:29.224Z,99230.45
2022-09-21T01:09:32.156Z,99233.05
2022-09-21T01:11:00.090Z,99233.79
2022-09-21T01:12:17.593Z,99230.14
2022-09-21T01:13:45.558Z,99227.33
2022-09-21T01:16:16.881Z,99230.73
2022-09-21T01:17:48.451Z,99232.27
2022-09-21T01:20:22.899Z,99223.72
2022-09-21T01:21:34.445Z,99229.37
2022-09-21T01:23:00.976Z,99235.25
2022-09-21T01:24:27.874Z,99234.28
2022-09-21T01:25:42.721Z,99226.31
2022-09-21T01:27:09.857Z,99231.29
2022-09-21T01:28:21.436Z,99223.27
2022-09-21T01:29:36.374Z,99222.03
2022-09-21T01:30:45.673Z,99229.46
2022-09-21T01:32:05.162Z,99225.78
2022-09-21T01:33:17.093Z,99226.92
2022-09-21T01:34:37.604Z,99237.17
2022-09-21T01:35:46.252Z,99232.42
2022-09-21T01:36:51.484Z,99229.09
2022-09-21T01:37:59.871Z,99231.83
2022-09-21T01:39:08.218Z,99235.94
2022-09-21T01:40:24.181Z,99236.63
2022-09-21T01:41:29.919Z,99241.08
2022-09-21T01:42:35.066Z,99228.40
2022-09-21T01:43:43.457Z,99236.63
2022-09-21T01:44:47.512Z,99237.80
2022-09-21T01:45:53.087Z,99230.73
2022-09-21T01:46:58.256Z,99237.31
2022-09-21T01:48:01.067Z,99233.58
2022-09-21T01:49:06.775Z,99239.86
2022-09-21T01:50:11.300Z,99240.14
2022-09-21T01:51:16.027Z,99243.57
2022-09-21T01:52:24.378Z,99241.14
2022-09-21T01:53:42.122Z,99240.69
2022-09-21T01:54:51.831Z,99241.54
2022-09-21T01:55:57.414Z,99237.17
2022-09-21T01:57:05.869Z,99242.05
2022-09-21T01:58:14.658Z,99238.09
2022-09-21T01:59:23.196Z,99241.59
2022-09-21T02:00:27.023Z,99246.73
2022-09-21T02:01:32.661Z,99244.36
2022-09-21T02:02:38.316Z,99241.91
2022-09-21T02:03:43.926Z,99237.80
2022-09-21T02:04:46.027Z,99233.59
2022-09-21T02:05:48.168Z,99234.42
2022-09-21T02:06:51.169Z,99234.64
2022-09-21T02:07:54.941Z,99240.61
2022-09-21T02:08:57.263Z,99237.02
2022-09-21T02:10:00.931Z,99234.88
2022-09-21T02:11:05.005Z,99237.00
2022-09-21T02:12:07.440Z,99240.38
2022-09-21T02:13:10.611Z,99238.55
2022-09-21T02:14:16.159Z,99235.26
2022-09-21T02:15:21.839Z,99235.03
2022-09-21T02:16:46.156Z,99243.74
2022-09-21T02:17:54.581Z,99239.86
2022-09-21T02:19:15.507Z,99237.48
2022-09-21T02:20:21.394Z,99228.92
2022-09-21T02:21:39.257Z,99238.70
2022-09-21T02:23:03.165Z,99239.53
2022-09-21T02:25:29.147Z,99240.38
2022-09-21T02:26:37.978Z,99239.00
2022-09-21T02:27:58.866Z,99244.19
2022-09-21T02:29:25.554Z,99249.08
2022-09-21T02:30:29.515Z,99248.94
2022-09-21T02:31:53.168Z,99249.53
2022-09-21T02:33:15.311Z,99250.31
2022-09-21T02:34:35.481Z,99247.39
2022-09-21T02:35:47.217Z,99248.02
2022-09-21T02:36:57.166Z,99254.67
2022-09-21T02:38:06.363Z,99247.70
2022-09-21T02:39:17.645Z,99247.70
2022-09-21T02:40:26.426Z,99250.39
2022-09-21T02:41:32.182Z,99253.84
2022-09-21T02:42:38.704Z,99247.19
2022-09-21T02:44:01.344Z,99248.18
2022-09-21T02:45:12.987Z,99255.06
2022-09-21T02:46:28.000Z,99249.70
2022-09-21T02:47:40.022Z,99255.06
2022-09-21T02:48:52.662Z,99264.81
2022-09-21T02:50:01.202Z,99252.91
2022-09-21T02:51:06.856Z,99262.13
2022-09-21T02:52:12.441Z,99259.31
2022-09-21T02:53:18.142Z,99261.22
2022-09-21T02:54:23.829Z,99258.54
2022-09-21T02:55:27.132Z,99257.49
2022-09-21T02:56:31.890Z,99260.84
2022-09-21T02:57:35.774Z,99267.58
2022-09-21T02:58:42.374Z,99267.72
2022-09-21T02:59:44.652Z,99259.18
2022-09-21T03:00:47.022Z,99259.92
2022-09-21T03:01:50.660Z,99265.28
2022-09-21T03:02:52.747Z,99259.75
2022-09-21T03:03:55.731Z,99262.30
2022-09-21T03:04:58.806Z,99263.05
2022-09-21T03:06:01.660Z,99265.24
2022-09-21T03:07:03.686Z,99265.33
2022-09-21T03:08:06.620Z,99268.70
2022-09-21T03:09:08.671Z,99271.91
2022-09-21T03:10:11.686Z,99268.45
2022-09-21T03:11:18.157Z,99264.81
2022-09-21T03:12:20.381Z,99264.95
2022-09-21T03:13:22.776Z,99267.70
2022-09-21T03:14:25.200Z,99264.03
2022-09-21T03:15:27.237Z,99260.66
2022-09-21T03:16:29.375Z,99260.05
2022-09-21T03:17:31.532Z,99265.02
2022-09-21T03:18:33.833Z,99273.51
2022-09-21T03:19:35.667Z,99273.73
2022-09-21T03:20:45.367Z,99270.30
2022-09-21T03:21:47.292Z,99270.30
2022-09-21T03:22:49.109Z,99270.00
2022-09-21T03:23:51.092Z,99263.90
2022-09-21T03:24:52.969Z,99264.95
2022-09-21T03:25:55.453Z,99262.30
2022-09-21T03:26:57.397Z,99260.66
2022-09-21T03:27:59.571Z,99264.95
2022-09-21T03:29:01.887Z,99258.70
2022-09-21T03:30:06.840Z,99258.06
2022-09-21T03:31:09.345Z,99257.16
2022-09-21T03:32:11.999Z,99263.26
2022-09-21T03:33:13.994Z,99270.14
2022-09-21T03:34:15.987Z,99267.23
2022-09-21T03:35:19.294Z,99270.44
2022-09-21T03:36:21.917Z,99270.60
2022-09-21T03:37:23.696Z,99270.60
2022-09-21T03:38:26.030Z,99271.21
2022-09-21T03:39:28.007Z,99275.33
2022-09-21T03:40:30.762Z,99271.82
2022-09-21T03:41:32.841Z,99272.44
2022-09-21T03:42:34.696Z,99279.40
2022-09-21T03:43:36.554Z,99272.60
2022-09-21T03:44:38.577Z,99272.60
2022-09-21T03:45:40.985Z,99266.63
2022-09-21T03:46:43.699Z,99267.48
2022-09-21T03:47:46.632Z,99271.98
2022-09-21T03:48:48.574Z,99269.39
2022-09-21T03:49:50.506Z,99275.63
2022-09-21T03:50:53.274Z,99275.63
2022-09-21T03:51:55.249Z,99275.63
2022-09-21T03:52:57.913Z,99272.20
2022-09-21T03:53:59.915Z,99271.13
2022-09-21T03:55:01.905Z,99272.90
2022-09-21T03:56:04.272Z,99275.33
2022-09-21T03:57:06.095Z,99272.52
2022-09-21T03:58:08.986Z,99274.12
2022-09-21T03:59:14.109Z,99278.63
2022-09-21T04:00:17.431Z,99278.70
2022-09-21T04:01:20.102Z,99277.87
2022-09-21T04:02:22.113Z,99283.36
2022-09-21T04:03:27.883Z,99285.72
2022-09-21T04:04:30.464Z,99289.78
2022-09-21T04:05:32.490Z,99288.70
2022-09-21T04:06:34.495Z,99292.30
2022-09-21T04:07:37.240Z,99296.66
2022-09-21T04:08:39.964Z,99292.46
2022-09-21T04:09:42.422Z,99289.22
2022-09-21T04:10:45.517Z,99297.09
2022-09-21T04:11:47.626Z,99295.36
2022-09-21T04:12:49.425Z,99302.20
2022-09-21T04:13:53.031Z,99291.08
2022-09-21T04:14:54.965Z,99298.56
2022-09-21T04:15:56.933Z,99300.86
2022-09-21T04:16:58.994Z,99301.00
2022-09-21T04:18:00.946Z,99299.34
2022-09-21T04:19:04.020Z,99299.47
2022-09-21T04:20:07.689Z,99299.47
2022-09-21T04:21:09.627Z,99304.75
2022-09-21T04:22:12.119Z,99303.28
2022-09-21T04:23:14.141Z,99300.59
2022-09-21T04:24:18.212Z,99303.28
2022-09-21T04:25:23.020Z,99294.66
2022-09-21T04:26:33.419Z,99292.97
2022-09-21T04:27:37.287Z,99299.61
2022-09-21T04:28:41.041Z,99305.36
2022-09-21T04:29:44.950Z,99297.36
2022-09-21T04:30:53.790Z,99295.11
2022-09-21T04:31:57.783Z,99294.98
2022-09-21T04:33:01.819Z,99295.97
2022-09-21T04:34:06.393Z,99291.60
2022-09-21T04:35:10.562Z,99293.29
2022-09-21T04:36:15.786Z,99289.91
2022-09-21T04:37:19.393Z,99292.30
2022-09-21T04:38:23.330Z,99292.46
2022-09-21T04:39:27.492Z,99291.08
2022-09-21T04:40:31.339Z,99297.39
2022-09-21T04:41:33.398Z,99293.05
2022-09-21T04:42:37.018Z,99291.16
2022-09-21T04:43:41.122Z,99294.09
2022-09-21T04:44:44.132Z,99289.52
2022-09-21T04:45:46.646Z,99291.41
2022-09-21T04:46:49.022Z,99297.30
2022-09-21T04:47:50.845Z,99291.20
2022-09-21T04:48:53.876Z,99295.65
2022-09-21T04:49:57.715Z,99291.98
2022-09-21T04:50:59.494Z,99288.26
2022-09-21T04:52:01.556Z,99289.30
2022-09-21T04:53:03.899Z,99291.81
2022-09-21T04:54:06.358Z,99293.45
2022-09-21T04:55:08.436Z,99300.38
2022-09-21T04:56:13.909Z,99292.59
2022-09-21T04:57:16.290Z,99287.40
2022-09-21T04:58:22.441Z,99290.21
2022-09-21T04:59:22.219Z,99290.91
2022-09-21T05:00:24.257Z,99293.45
2022-09-21T05:01:27.630Z,99290.30
2022-09-21T05:02:29.514Z,99293.19
2022-09-21T05:03:31.465Z,99282.88
2022-09-21T05:04:33.327Z,99297.47
2022-09-21T05:05:35.099Z,99296.39
2022-09-21T05:06:36.943Z,99298.08
2022-09-21T05:07:38.967Z,99296.18
2022-09-21T05:08:40.952Z,99297.02
2022-09-21T05:09:43.041Z,99300.38
2022-09-21T05:10:45.460Z,99303.59
2022-09-21T05:11:47.239Z,99309.43
2022-09-21T05:12:49.121Z,99304.93
2022-09-21T05:13:50.829Z,99297.19
2022-09-21T05:14:52.712Z,99310.05
2022-09-21T05:15:54.672Z,99310.52
2022-09-21T05:16:58.724Z,99310.52
2022-09-21T05:18:00.354Z,99314.16
2022-09-21T05:19:03.004Z,99320.00
2022-09-21T05:20:05.768Z,99314.33
2022-09-21T05:21:11.614Z,99314.33
2022-09-21T05:22:14.773Z,99315.77
2022-09-21T05:23:16.955Z,99319.14
2022-09-21T05:24:19.394Z,99311.34
2022-09-21T05:25:21.313Z,99321.04
2022-09-21T05:26:24.127Z,99317.84
2022-09-21T05:27:26.202Z,99317.14
2022-09-21T05:28:28.789Z,99320.11
2022-09-21T05:29:31.730Z,99319.62
2022-09-21T05:30:34.891Z,99322.77
2022-09-21T05:31:47.993Z,99327.73
2022-09-21T05:32:59.896Z,99328.16
2022-09-21T05:34:36.207Z,99317.73
2022-09-21T05:35:57.147Z,99330.50
2022-09-21T05:37:36.467Z,99330.02
2022-09-21T05:38:38.758Z,99329.23
2022-09-21T05:39:41.425Z,99321.77
2022-09-21T05:40:44.874Z,99326.34
2022-09-21T05:41:47.927Z,99322.77
2022-09-21T05:42:50.463Z,99321.77
2022-09-21T05:43:53.295Z,99321.64
2022-09-21T05:44:55.805Z,99328.22
2022-09-21T05:46:07.373Z,99319.36
2022-09-21T05:47:15.967Z,99322.73
2022-09-21T05:48:24.986Z,99329.45
2022-09-21T05:49:51.953Z,99324.37
2022-09-21T05:52:23.130Z,99329.64
2022-09-21T05:54:04.960Z,99333.60
2022-09-21T05:55:30.802Z,99323.75
2022-09-21T05:56:59.287Z,99328.66
2022-09-21T05:58:19.727Z,99340.11
2022-09-21T05:59:37.403Z,99339.12
2022-09-21T06:00:58.148Z,99335.53
2022-09-21T06:02:16.755Z,99341.80
2022-09-21T06:03:25.195Z,99342.14
2022-09-21T06:04:28.349Z,99336.66
2022-09-21T06:05:30.605Z,99332.61
2022-09-21T06:06:33.602Z,99336.95
2022-09-21T06:07:35.465Z,99332.61
2022-09-21T06:08:37.417Z,99339.20
2022-09-21T06:09:43.046Z,99341.31
2022-09-21T06:10:43.481Z,99341.23
2022-09-21T06:11:45.379Z,99338.29
2022-09-21T06:12:47.281Z,99345.14
2022-09-21T06:13:48.991Z,99340.42
2022-09-21T06:14:52.786Z,99342.28
2022-09-21T06:15:55.805Z,99339.52
2022-09-21T06:16:57.922Z,99343.80
2022-09-21T06:18:00.028Z,99340.99
2022-09-21T06:19:01.684Z,99343.29
2022-09-21T06:20:05.334Z,99350.70
2022-09-21T06:21:09.296Z,99346.89
2022-09-21T06:22:11.346Z,99347.06
2022-09-21T06:23:13.814Z,99351.61
2022-09-21T06:24:16.561Z,99348.96
2022-09-21T06:25:18.740Z,99354.98
2022-09-21T06:26:20.628Z,99354.85
2022-09-21T06:27:22.414Z,99349.02
2022-09-21T06:28:24.879Z,99350.70
2022-09-21T06:29:26.583Z,99353.00
2022-09-21T06:30:28.530Z,99352.86
2022-09-21T06:31:30.545Z,99356.07
2022-09-21T06:32:32.826Z,99353.39
2022-09-21T06:33:35.982Z,99355.55
2022-09-21T06:34:38.297Z,99349.27
2022-09-21T06:35:42.391Z,99352.28
2022-09-21T06:36:44.581Z,99349.88
2022-09-21T06:37:46.298Z,99360.69
2022-09-21T06:38:47.923Z,99355.17
2022-09-21T06:39:49.702Z,99356.77
2022-09-21T06:40:52.990Z,99355.95
2022-09-21T06:41:55.450Z,99355.80
2022-09-21T06:42:59.250Z,99354.71
2022-09-21T06:44:02.281Z,99357.40
2022-09-21T06:45:05.606Z,99360.69
2022-09-21T06:46:08.321Z,99354.39
2022-09-21T06:47:10.278Z,99354.98
2022-09-21T06:48:12.006Z,99354.07
2022-09-21T06:49:15.031Z,99358.72
2022-09-21T06:50:17.618Z,99363.00
2022-09-21T06:51:21.598Z,99362.32
2022-09-21T06:52:24.052Z,99364.09
2022-09-21T06:53:28.057Z,99359.98
2022-09-21T06:54:30.442Z,99365.52
2022-09-21T06:55:32.341Z,99364.01
2022-09-21T06:56:34.749Z,99361.55
2022-09-21T06:57:36.764Z,99361.00
2022-09-21T06:58:38.512Z,99367.12
2022-09-21T06:59:40.798Z,99356.22
2022-09-21T07:00:42.920Z,99356.84
2022-09-21T07:01:44.930Z,99359.27
2022-09-21T07:02:46.913Z,99359.91
2022-09-21T07:03:50.667Z,99363.34
2022-09-21T07:04:52.494Z,99362.28
2022-09-21T07:05:54.801Z,99360.36
2022-09-21T07:06:57.227Z,99366.16
2022-09-21T07:07:59.401Z,99360.19
2022-09-21T07:10:07.721Z,99371.45
2022-09-21T07:11:11.756Z,99363.41
2022-09-21T07:12:13.795Z,99366.84
2022-09-21T07:13:15.770Z,99359.86
2022-09-21T07:14:17.512Z,99364.01
2022-09-21T07:15:20.550Z,99367.34
2022-09-21T07:16:22.462Z,99375.24
2022-09-21T07:17:25.078Z,99369.80
2022-09-21T07:18:27.470Z,99373.91
2022-09-21T07:19:29.350Z,99382.34
2022-09-21T07:20:31.195Z,99372.73
2022-09-21T07:21:33.054Z,99377.98
2022-09-21T07:22:36.061Z,99377.98
2022-09-21T07:23:38.703Z,99383.33
2022-09-21T07:24:40.502Z,99379.49
2022-09-21T07:25:43.852Z,99375.66
2022-09-21T07:26:45.966Z,99381.18
2022-09-21T07:27:47.627Z,99393.86
2022-09-21T07:28:49.470Z,99386.06
2022-09-21T07:29:52.020Z,99379.75
2022-09-21T07:30:54.384Z,99380.44
2022-09-21T07:31:56.317Z,99380.18
2022-09-21T07:32:58.200Z,99390.21
2022-09-21T07:33:59.938Z,99383.46
2022-09-21T07:35:01.775Z,99383.46
2022-09-21T07:36:05.400Z,99398.87
2022-09-21T07:37:07.440Z,99388.66
2022-09-21T07:38:09.216Z,99388.55
2022-09-21T07:39:11.067Z,99394.27
2022-09-21T07:40:13.682Z,99385.14
2022-09-21T07:41:15.556Z,99393.75
2022-09-21T07:42:17.474Z,99388.80
2022-09-21T07:43:19.250Z,99391.58
2022-09-21T07:44:21.481Z,99388.16
2022-09-21T07:45:23.316Z,99385.23
2022-09-21T07:46:25.992Z,99387.30
2022-09-21T07:47:28.026Z,99397.38
2022-09-21T07:48:31.807Z,99395.09
2022-09-21T07:49:33.725Z,99389.75
2022-09-21T07:50:35.688Z,99400.16
2022-09-21T07:51:37.325Z,99395.41
2022-09-21T07:52:38.967Z,99390.48
2022-09-21T07:53:42.712Z,99388.66
2022-09-21T07:54:44.508Z,99397.41
2022-09-21T07:55:46.318Z,99403.98
2022-09-21T07:56:48.380Z,99404.95
2022-09-21T07:57:50.825Z,99395.39
2022-09-21T07:58:53.936Z,99399.89
2022-09-21T07:59:56.041Z,99400.02
2022-09-21T08:00:58.755Z,99403.67
2022-09-21T08:02:00.699Z,99399.53
2022-09-21T08:03:02.972Z,99394.50
2022-09-21T08:04:07.153Z,99402.91
2022-09-21T08:05:09.206Z,99405.46
2022-09-21T08:06:11.691Z,99405.46
2022-09-21T08:07:13.595Z,99403.95
2022-09-21T08:08:16.919Z,99398.16
2022-09-21T08:09:18.867Z,99405.75
2022-09-21T08:10:20.812Z,99407.50
2022-09-21T08:11:24.051Z,99407.63
2022-09-21T08:12:26.232Z,99409.19
2022-09-21T08:13:28.147Z,99404.22
2022-09-21T08:14:29.962Z,99403.67
2022-09-21T08:15:48.761Z,99405.67
2022-09-21T08:16:37.662Z,99407.82
2022-09-21T08:17:40.231Z,99399.02
2022-09-21T08:18:42.480Z,99399.02
2022-09-21T08:19:44.347Z,99401.84
2022-09-21T08:20:49.959Z,99407.36
2022-09-21T08:21:57.160Z,99407.27
2022-09-21T08:22:57.253Z,99410.64
2022-09-21T08:23:59.053Z,99409.36
2022-09-21T08:25:00.936Z,99408.08
2022-09-21T08:26:04.558Z,99419.17
2022-09-21T08:27:07.426Z,99414.58
2022-09-21T08:28:10.105Z,99406.25
2022-09-21T08:29:12.350Z,99410.12
2022-09-21T08:30:18.404Z,99410.38
2022-09-21T08:31:22.960Z,99408.77
2022-09-21T08:32:49.504Z,99416.96
2022-09-21T08:33:29.781Z,99408.00
2022-09-21T08:34:32.974Z,99409.16
2022-09-21T08:35:36.221Z,99408.52
2022-09-21T08:36:38.164Z,99415.11
2022-09-21T08:37:40.299Z,99413.28
2022-09-21T08:38:42.086Z,99416.48
2022-09-21T08:39:43.737Z,99417.17
2022-09-21T08:40:48.824Z,99413.89
2022-09-21T08:42:09.589Z,99413.59
2022-09-21T08:43:16.139Z,99406.92
2022-09-21T08:44:34.770Z,99413.28
2022-09-21T08:45:45.473Z,99420.00
2022-09-21T08:46:53.235Z,99412.33
2022-09-21T08:47:59.459Z,99422.25
2022-09-21T08:49:05.612Z,99412.63
2022-09-21T08:50:11.330Z,99412.08
2022-09-21T08:51:17.040Z,99414.81
2022-09-21T08:52:23.119Z,99418.05
2022-09-21T08:53:28.633Z,99410.66
2022-09-21T08:54:52.033Z,99414.95
2022-09-21T08:55:58.226Z,99420.76
2022-09-21T08:57:06.317Z,99414.04
2022-09-21T08:59:23.895Z,99420.34
2022-09-21T09:00:28.995Z,99419.39
2022-09-21T09:01:40.483Z,99423.06
2022-09-21T09:02:55.713Z,99420.64
2022-09-21T09:05:50.423Z,99428.98
2022-09-21T09:06:59.384Z,99430.97
2022-09-21T09:08:14.676Z,99434.55
2022-09-21T09:09:52.468Z,99430.27
2022-09-21T09:11:20.180Z,99429.12
2022-09-21T09:12:40.739Z,99432.72
2022-09-21T09:14:04.531Z,99435.34
2022-09-21T09:15:22.420Z,99425.83
2022-09-21T09:16:37.706Z,99426.59
2022-09-21T09:17:46.435Z,99423.98
2022-09-21T09:19:00.738Z,99433.65
2022-09-21T09:20:06.358Z,99425.93
2022-09-21T09:21:31.269Z,99427.77
2022-09-21T09:22:33.537Z,99431.63
2022-09-21T09:23:42.057Z,99423.07
2022-09-21T09:24:49.821Z,99426.16
2022-09-21T09:25:56.496Z,99431.81
2022-09-21T09:27:05.890Z,99424.92
2022-09-21T09:28:35.989Z,99443.40
2022-09-21T09:29:51.573Z,99429.12
2022-09-21T09:31:04.023Z,99430.28
2022-09-21T09:32:12.863Z,99429.80
2022-09-21T09:33:24.489Z,99436.16
2022-09-21T09:34:32.776Z,99431.14
2022-09-21T09:35:41.388Z,99434.33
2022-09-21T09:36:58.382Z,99433.12
2022-09-21T09:37:55.414Z,99429.11
2022-09-21T09:39:03.974Z,99425.25
2022-09-21T09:40:07.175Z,99439.54
2022-09-21T09:41:30.790Z,99442.72
2022-09-21T09:42:39.286Z,99437.36
2022-09-21T09:43:50.573Z,99430.97
2022-09-21T09:45:18.656Z,99428.27
2022-09-21T09:46:37.740Z,99431.54
2022-09-21T09:47:52.306Z,99440.78
2022-09-21T09:49:19.563Z,99440.39
2022-09-21T09:50:31.038Z,99435.32
2022-09-21T09:51:33.368Z,99433.83
2022-09-21T09:52:36.046Z,99427.09
2022-09-21T09:53:38.316Z,99425.53
2022-09-21T09:54:40.622Z,99428.19
2022-09-21T09:55:51.753Z,99425.97
2022-09-21T09:56:54.206Z,99432.36
2022-09-21T09:57:57.104Z,99422.76
2022-09-21T09:59:03.671Z,99428.42
2022-09-21T10:00:07.624Z,99434.11
2022-09-21T10:01:44.371Z,99429.16
2022-09-21T10:02:58.112Z,99435.95
2022-09-21T10:04:13.039Z,99429.77
2022-09-21T10:05:24.536Z,99438.17
2022-09-21T10:06:33.016Z,99438.70
2022-09-21T10:07:38.510Z,99434.16
2022-09-21T10:08:46.103Z,99436.34
2022-09-21T10:09:47.921Z,99427.06
2022-09-21T10:10:50.201Z,99446.42
2022-09-21T10:11:54.788Z,99439.70
2022-09-21T10:13:07.020Z,99435.32
2022-09-21T10:14:11.924Z,99442.89
2022-09-21T10:15:19.838Z,99436.43
2022-09-21T10:16:23.225Z,99440.78
2022-09-21T10:17:25.797Z,99442.47
2022-09-21T10:18:40.308Z,99434.84
2022-09-21T10:19:42.386Z,99449.02
2022-09-21T10:20:53.887Z,99453.75
2022-09-21T10:22:01.074Z,99436.68
2022-09-21T10:23:03.798Z,99435.34
2022-09-21T10:24:31.511Z,99432.48
2022-09-21T10:25:39.505Z,99441.70
2022-09-21T10:26:47.922Z,99446.09
2022-09-21T10:27:51.845Z,99459.71
2022-09-21T10:29:02.771Z,99447.02
2022-09-21T10:30:08.689Z,99457.53
2022-09-21T10:31:20.215Z,99455.66
2022-09-21T10:33:45.961Z,99452.56
2022-09-21T10:35:00.868Z,99447.26
2022-09-21T10:36:03.578Z,99458.45
2022-09-21T10:37:24.285Z,99461.05
2022-09-21T10:38:26.529Z,99458.02
2022-09-21T10:39:30.997Z,99467.09
2022-09-21T10:40:37.933Z,99464.72
2022-09-21T10:41:40.252Z,99461.71
2022-09-21T10:42:42.763Z,99455.64
2022-09-21T10:43:45.085Z,99466.41
2022-09-21T10:44:50.315Z,99468.25
2022-09-21T10:45:56.081Z,99466.26
2022-09-21T10:47:01.863Z,99464.79
2022-09-21T10:48:16.881Z,99467.06
2022-09-21T10:49:23.032Z,99468.42
2022-09-21T10:50:31.805Z,99464.02
2022-09-21T10:51:33.801Z,99468.40
2022-09-21T10:52:39.360Z,99466.15
2022-09-21T10:53:45.814Z,99464.72
2022-09-21T10:54:52.557Z,99470.77
2022-09-21T10:56:22.624Z,99471.73
2022-09-21T10:57:14.683Z,99468.07
2022-09-21T10:58:16.727Z,99463.10
2022-09-21T10:59:23.320Z,99462.19
2022-09-21T11:00:28.665Z,99468.45
2022-09-21T11:01:31.134Z,99456.27
2022-09-21T11:02:36.769Z,99458.55
2022-09-21T11:03:49.141Z,99465.02
2022-09-21T11:04:55.080Z,99461.83
2022-09-21T11:06:16.259Z,99472.03
2022-09-21T11:07:30.724Z,99461.42
2022-09-21T11:08:42.171Z,99463.94
2022-09-21T11:09:56.774Z,99474.12
2022-09-21T11:11:17.867Z,99470.83
2022-09-21T11:12:23.411Z,99474.36
2022-09-21T11:13:34.788Z,99468.16
2022-09-21T11:14:46.330Z,99472.36
2022-09-21T11:15:58.391Z,99472.20
2022-09-21T11:17:19.687Z,99463.48
2022-09-21T11:18:42.158Z,99470.23
2022-09-21T11:19:50.924Z,99455.55
2022-09-21T11:20:56.602Z,99470.95
2022-09-21T11:22:11.247Z,99464.06
2022-09-21T11:23:45.317Z,99465.48
2022-09-21T11:25:09.928Z,99464.04
2022-09-21T11:26:19.089Z,99462.27
2022-09-21T11:27:37.610Z,99463.35
2022-09-21T11:29:01.492Z,99468.38
2022-09-21T11:30:13.339Z,99458.75
2022-09-21T11:31:25.071Z,99463.65
2022-09-21T11:32:50.825Z,99470.54
2022-09-21T11:34:15.834Z,99463.34
2022-09-21T11:35:24.361Z,99457.99
2022-09-21T11:36:53.165Z,99463.94
2022-09-21T11:38:14.076Z,99467.91
2022-09-21T11:42:53.070Z,99471.91
2022-09-21T11:44:21.471Z,99462.86
2022-09-21T11:45:30.231Z,99465.58
2022-09-21T11:46:48.925Z,99474.51
2022-09-21T11:47:54.622Z,99468.97
2022-09-21T11:49:03.885Z,99473.56
2022-09-21T11:50:32.133Z,99471.80
2022-09-21T11:51:41.257Z,99476.02
2022-09-21T11:53:05.766Z,99467.77
2022-09-21T11:54:45.003Z,99464.73
2022-09-21T11:56:06.885Z,99467.28
2022-09-21T11:57:36.692Z,99472.64
2022-09-21T11:58:54.267Z,99464.46
2022-09-21T12:00:05.113Z,99462.89
2022-09-21T12:01:37.936Z,99471.91
2022-09-21T12:02:52.863Z,99469.78
2022-09-21T12:03:58.814Z,99468.92
2022-09-21T12:05:26.619Z,99465.83
2022-09-21T12:06:46.732Z,99472.31
2022-09-21T12:08:19.505Z,99470.13
2022-09-21T12:09:34.831Z,99470.13
2022-09-21T12:10:44.252Z,99462.30
2022-09-21T12:11:50.927Z,99464.72
2022-09-21T12:12:59.362Z,99466.59
2022-09-21T12:14:26.457Z,99471.47
2022-09-21T12:15:48.440Z,99469.11
2022-09-21T12:18:31.243Z,99469.89
2022-09-21T12:21:11.411Z,99475.83
2022-09-21T12:22:18.247Z,99478.19
2022-09-21T12:23:30.993Z,99471.72
2022-09-21T12:24:36.496Z,99467.34
2022-09-21T12:25:41.985Z,99468.68
2022-09-21T12:26:56.841Z,99477.85
2022-09-21T12:28:29.729Z,99469.02
2022-09-21T12:29:35.922Z,99474.98
2022-09-21T12:30:41.255Z,99476.34
2022-09-21T12:31:49.929Z,99470.80
2022-09-21T12:32:55.939Z,99474.51
2022-09-21T12:34:03.542Z,99474.33
2022-09-21T12:35:09.118Z,99467.28
2022-09-21T12:36:18.802Z,99468.45
2022-09-21T12:37:39.647Z,99472.49
2022-09-21T12:38:55.106Z,99473.32
2022-09-21T12:40:06.708Z,99469.80
2022-09-21T12:41:18.616Z,99472.98
2022-09-21T12:42:48.412Z,99461.05
2022-09-21T12:43:57.398Z,99479.88
2022-09-21T12:45:21.161Z,99462.25
2022-09-21T12:46:32.848Z,99466.26
2022-09-21T12:47:52.797Z,99472.33
2022-09-21T12:49:01.146Z,99468.53
2022-09-21T12:50:06.751Z,99471.14
2022-09-21T12:51:16.486Z,99468.77
2022-09-21T12:52:24.950Z,99469.48
2022-09-21T12:53:30.900Z,99466.03
2022-09-21T12:54:43.549Z,99467.23
2022-09-21T12:55:58.058Z,99464.06
2022-09-21T12:58:29.317Z,99461.11
2022-09-21T13:01:13.935Z,99480.31
2022-09-21T13:02:25.874Z,99474.50
2022-09-21T13:03:34.953Z,99476.55
2022-09-21T13:05:00.687Z,99473.55
2022-09-21T13:06:27.691Z,99475.42
2022-09-21T13:07:42.077Z,99478.91
2022-09-21T13:08:46.842Z,99476.66
2022-09-21T13:09:50.256Z,99470.37
2022-09-21T13:11:00.980Z,99472.72
2022-09-21T13:12:10.525Z,99470.37
2022-09-21T13:13:28.053Z,99466.34
2022-09-21T13:14:33.302Z,99469.25
2022-09-21T13:15:45.042Z,99476.06
2022-09-21T13:16:51.767Z,99477.33
2022-09-21T13:18:05.712Z,99467.50
2022-09-21T13:19:17.149Z,99467.50
2022-09-21T13:20:21.216Z,99472.81
2022-09-21T13:21:29.488Z,99462.54
2022-09-21T13:22:36.584Z,99466.57
2022-09-21T13:23:39.908Z,99464.72
2022-09-21T13:24:43.768Z,99462.89
2022-09-21T13:26:01.403Z,99465.97
2022-09-21T13:27:03.581Z,99470.60
2022-09-21T13:28:17.516Z,99465.45
2022-09-21T13:29:23.126Z,99461.25
2022-09-21T13:30:35.317Z,99474.45